AirNav   Everest Fuels
 
 1591 users online  

3VA2 Aviacres Airport
Warrenton, Virginia, USA

GOING TO WARRENTON?


FAA INFORMATION EFFECTIVE 15 AUGUST 2019

Location

FAA Identifier: 3VA2
Lat/Long: 38-37-27.4360N 077-47-09.9750W
38-37.457267N 077-47.166250W
38.6242878,-77.7861042
(estimated)
Elevation: 435 ft. / 133 m (estimated)
Variation: 09W (1985)
From city: 5 miles S of WARRENTON, VA
Time zone: UTC -4 (UTC -5 during Standard Time)
Zip code: 22712

Airport Operations

Airport use: Private use. Permission required prior to landing
Activation date: 11/1975
Control tower: no
ARTCC: WASHINGTON CENTER
FSS: LEESBURG FLIGHT SERVICE STATION
Attendance: CONTINUOUS
Wind indicator: yes
Segmented circle: no

Airport Communications

WX AWOS-3 at HWY (4 nm SE): 120.350 (540-788-4078)
WX AWOS-3 at CJR (7 nm SW): 119.325 (540-727-0523)
WX AWOS-3PT at HEF (14 nm NE): PHONE 703-361-6160

Nearby radio navigation aids

VOR radial/distance  VOR name  Freq  Var
CSNr111/3.9CASANOVA VORTAC116.3006W
AMLr227/23.9ARMEL VOR/DME113.5008W
LDNr131/24.0LINDEN VORTAC114.3006W
BRVr319/26.7BROOKE VORTAC114.5009W
DCAr257/37.8WASHINGTON VOR/DME111.0009W

 
NDB name  Hdg/Dist  Freq  Var  ID
NAILR039/11.635110WMSQ -- ... --.-
SHANNON334/26.623710WEZF . --.. ..-.
DAVEE275/31.822309WDAA -.. .- .-
CAVERNS107/32.524509WLUA .-.. ..- .-
GEORGETOWN248/36.032309WGTN --. - -.
OXONN268/36.533211WDCA -.. -.-. .-

Airport Services

Runway Information

Runway 6/24

Dimensions: 2100 x 100 ft. / 640 x 30 m
Surface: turf
RUNWAY 6  RUNWAY 24
Traffic pattern: rightleft
Obstructions: nonefence

Airport Ownership and Management from official FAA records

Ownership: Privately-owned
Owner: JOHN D. KING
6555 STONEY RD
MIDLAND, VA 22728
Phone 540-439-8621
CELL: 540-878-8288
Manager: JOHN D. KING
6555 STONEY RD
MIDLAND, VA 22728
Phone 540-439-8621

Airport Operational Statistics

Aircraft based on the field: 5
Single engine airplanes: 5
    

Additional Remarks

FOR CD CTC POTOMAC APCH AT 866-709-4993.

Instrument Procedures

There are no published instrument procedures at 3VA2.

Some nearby airports with instrument procedures:

KHWY - Warrenton-Fauquier Airport (4 nm SE)
KCJR - Culpeper Regional Airport (7 nm SW)
KHEF - Manassas Regional Airport/Harry P. Davis Field (14 nm NE)
KRMN - Stafford Regional Airport (21 nm SE)
2VG2 - Upperville Airport (21 nm N)
 
Loc | Ops | Rwys | IFR | FBO | Links
Com | Nav | Svcs | Stats | Notes
Area around 3VA2 (Aviacres Airport)
 
Road maps at: MapQuest Bing Google
 
Aerial photo
No photo
 
Sectional chart

 
Airport distance calculator
Flying to Aviacres Airport? Find the distance to fly.

From to 3VA2

Sunrise and sunset
Times for 19-Aug-2019
 Local
(UTC-4)
 Zulu
(UTC)
Morning civil twilight06:0210:02
Sunrise06:3010:30
Sunset20:0024:00
Evening civil twilight20:2800:28

Current date and time
Zulu (UTC)  19-Aug-2019 15:28:40
Local (UTC-4)  19-Aug-2019 11:28:40
 
METAR
KHWY 
4nm SE 
191515Z AUTO 00000KT 10SM CLR 33/19 A3003 RMK AO2 T03250190
KHEF 
14nm NE 
191456Z 30006KT 10SM CLR 32/22 A3002 RMK AO2 SLP170 T03170217 50005
KCJR 
18nm W 
191515Z AUTO 00000KT 10SM CLR 32/20 A3004 RMK AO2 T03230197
TAF
KIAD 
24nm NE 
191139Z 1912/2018 VRB03KT P6SM FEW050 SCT090 FM191500 26005KT P6SM SCT050 FM192000 29007KT P6SM VCTS BKN050CB FM192300 VRB04KT P6SM SCT060 FM200900 00000KT 5SM BR FEW060 FM201200 VRB03KT P6SM SCT070
KNYG 
25nm E 
1909/2009 VRB05KT 9999 FEW060 QNH2992INS BECMG 1918/1920 VRB15G20KT 3200 -TSRA BR BKN060CB QNH2992INS BECMG 2001/2003 VRB05KT 9999 NSW FEW060 QNH2994INS T33/1921Z T21/2008Z
KDAA 
30nm E 
190900Z 1909/2015 VRB06KT 8000 BR FEW030 QNH2991INS BECMG 1911/1912 20006KT 9999 NSW SCT040 QNH2992INS BECMG 1922/1923 21006KT 8000 -SHRA SCT040 QNH2995INS TEMPO 2000/2002 30020G25KT -TSRA BKN040CB BECMG 2002/2003 VRB06KT 9999 NSW FEW040 QNH3000INS TX36/1917Z TN22/2008Z
NOTAMs
Click for the latest NOTAMs
NOTAMs are issued by the DoD/FAA and will open in a separate window not controlled by AirNav.

 

 
 

Would you like to see your business listed on this page?

 If your business provides an interesting product or service to pilots, flight crews, aircraft, or users of the Aviacres Airport, you should consider listing it here.  To start the listing process, click on the button below
 
Add a business
 

Other Pages about Aviacres Airport

Update a link
 
Copyright © AirNav, LLC. All rights reserved. Privacy Policy  Contact